createdAt,value
2023-02-13T00:00:17.271Z,40.60
2023-02-13T00:03:18.935Z,35.90
2023-02-13T00:06:20.568Z,39.80
2023-02-13T00:09:22.165Z,38.87
2023-02-13T00:12:23.736Z,37.90
2023-02-13T00:15:25.534Z,37.78
2023-02-13T00:18:28.328Z,36.57
2023-02-13T00:21:30.076Z,39.58
2023-02-13T00:24:31.698Z,31.33
2023-02-13T00:27:33.435Z,36.67
2023-02-13T00:30:35.072Z,39.30
2023-02-13T00:33:37.485Z,40.33
2023-02-13T00:36:39.134Z,43.65
2023-02-13T00:39:43.639Z,37.40
2023-02-13T00:42:45.226Z,39.55
2023-02-13T00:45:46.827Z,38.83
2023-02-13T00:48:49.174Z,38.10
2023-02-13T00:51:50.816Z,36.30
2023-02-13T00:54:52.426Z,35.28
2023-02-13T00:57:54.165Z,40.00
2023-02-13T01:00:56.348Z,32.47
2023-02-13T01:03:58.293Z,40.05
2023-02-13T01:06:59.962Z,42.97
2023-02-13T01:10:01.592Z,49.00
2023-02-13T01:13:03.277Z,45.55
2023-02-13T01:16:05.186Z,44.88
2023-02-13T01:19:06.892Z,44.53
2023-02-13T01:22:08.794Z,44.55
2023-02-13T01:25:14.133Z,48.08
2023-02-13T01:28:15.789Z,44.53
2023-02-13T01:31:17.494Z,42.53
2023-02-13T01:34:19.225Z,45.53
2023-02-13T01:37:20.848Z,50.35
2023-02-13T01:40:22.534Z,49.43
2023-02-13T01:43:24.130Z,48.40
2023-02-13T01:46:39.119Z,44.25
2023-02-13T01:49:40.782Z,45.90
2023-02-13T01:52:45.297Z,45.80
2023-02-13T01:56:16.078Z,44.30
2023-02-13T01:59:22.250Z,45.33
2023-02-13T02:02:23.954Z,43.65
2023-02-13T02:05:27.293Z,42.22
2023-02-13T02:08:28.907Z,43.95
2023-02-13T02:12:04.862Z,45.57
2023-02-13T02:15:06.854Z,38.58
2023-02-13T02:18:26.632Z,39.05
2023-02-13T02:21:56.764Z,41.30
2023-02-13T02:25:36.357Z,39.80
2023-02-13T02:28:40.711Z,42.13
2023-02-13T02:32:16.205Z,42.88
2023-02-13T02:35:46.719Z,43.92
2023-02-13T02:39:01.424Z,49.67
2023-02-13T02:42:12.249Z,49.95
2023-02-13T02:45:22.989Z,47.63
2023-02-13T02:48:52.641Z,49.88
2023-02-13T02:52:03.355Z,49.40
2023-02-13T02:55:37.484Z,44.33
2023-02-13T02:59:11.352Z,48.97
2023-02-13T03:02:31.533Z,47.47
2023-02-13T03:05:51.714Z,52.92
2023-02-13T03:09:17.353Z,47.42
2023-02-13T03:12:39.028Z,48.03
2023-02-13T03:16:02.206Z,47.30
2023-02-13T03:19:22.424Z,43.87
2023-02-13T03:22:38.330Z,44.38
2023-02-13T03:26:20.873Z,42.80
2023-02-13T03:29:55.762Z,39.90
2023-02-13T03:33:04.674Z,45.60
2023-02-13T03:36:46.910Z,47.75
2023-02-13T03:40:11.632Z,40.63
2023-02-13T03:43:15.169Z,40.60
2023-02-13T03:46:16.898Z,43.70
2023-02-13T03:49:40.572Z,42.63
2023-02-13T03:52:46.875Z,36.97
2023-02-13T03:56:06.947Z,42.10
2023-02-13T03:59:18.985Z,41.88
2023-02-13T04:02:22.194Z,41.03
2023-02-13T04:05:25.933Z,45.28
2023-02-13T04:08:27.566Z,40.72
2023-02-13T04:12:10.246Z,43.85
2023-02-13T04:15:17.625Z,39.30
2023-02-13T04:18:20.513Z,43.72
2023-02-13T04:21:22.152Z,43.00
2023-02-13T04:24:24.865Z,52.00
2023-02-13T04:27:31.573Z,42.85
2023-02-13T04:30:33.212Z,44.65
2023-02-13T04:33:34.824Z,38.63
2023-02-13T04:36:36.427Z,44.63
2023-02-13T04:39:38.337Z,42.53
2023-02-13T04:42:42.914Z,46.42
2023-02-13T04:45:44.599Z,41.65
2023-02-13T04:48:46.218Z,43.60
2023-02-13T04:51:47.824Z,45.10
2023-02-13T04:54:49.425Z,48.33
2023-02-13T04:57:54.652Z,43.47
2023-02-13T05:00:56.602Z,41.65
2023-02-13T05:03:58.476Z,42.60
2023-02-13T05:07:00.126Z,44.55
2023-02-13T05:10:01.751Z,45.85
2023-02-13T05:13:07.473Z,48.88
2023-02-13T05:16:09.156Z,47.53
2023-02-13T05:19:10.966Z,49.63
2023-02-13T05:22:31.457Z,46.92
2023-02-13T05:25:34.601Z,44.73
2023-02-13T05:28:58.428Z,49.17
2023-02-13T05:32:00.197Z,49.45
2023-02-13T05:35:04.335Z,48.10
2023-02-13T05:38:06.601Z,48.92
2023-02-13T05:41:08.277Z,50.22
2023-02-13T05:44:09.896Z,50.53
2023-02-13T05:47:11.538Z,55.80
2023-02-13T05:50:13.164Z,50.00
2023-02-13T05:53:14.788Z,51.95
2023-02-13T05:56:16.448Z,46.40
2023-02-13T05:59:18.141Z,51.97
2023-02-13T06:02:19.714Z,47.38
2023-02-13T06:05:21.338Z,48.47
2023-02-13T06:08:23.132Z,49.45
2023-02-13T06:11:24.694Z,53.92
2023-02-13T06:14:26.319Z,56.20
2023-02-13T06:17:27.909Z,53.75
2023-02-13T06:20:29.565Z,59.33
2023-02-13T06:23:32.014Z,53.70
2023-02-13T06:26:34.453Z,55.20
2023-02-13T06:29:39.347Z,60.08
2023-02-13T06:32:40.949Z,55.17
2023-02-13T06:35:42.712Z,46.03
2023-02-13T06:38:44.377Z,49.05
2023-02-13T06:41:46.014Z,51.90
2023-02-13T06:44:51.663Z,53.70
2023-02-13T06:47:53.272Z,54.38
2023-02-13T06:50:55.299Z,52.45
2023-02-13T06:53:57.143Z,53.63
2023-02-13T06:56:58.717Z,51.20
2023-02-13T07:00:01.105Z,49.90
2023-02-13T07:03:03.894Z,52.25
2023-02-13T07:06:05.727Z,49.63
2023-02-13T07:09:07.389Z,51.38
2023-02-13T07:12:09.035Z,51.22
2023-02-13T07:15:14.359Z,49.75
2023-02-13T07:18:15.968Z,45.45
2023-02-13T07:21:17.597Z,48.83
2023-02-13T07:24:19.257Z,53.65
2023-02-13T07:27:20.837Z,52.53
2023-02-13T07:30:26.642Z,57.50
2023-02-13T07:33:28.316Z,59.25
2023-02-13T07:36:29.919Z,54.47
2023-02-13T07:39:32.062Z,51.47
2023-02-13T07:42:35.018Z,51.90
2023-02-13T07:45:40.792Z,57.83
2023-02-13T07:48:42.394Z,51.92
2023-02-13T07:51:44.018Z,50.05
2023-02-13T07:54:48.301Z,47.83
2023-02-13T07:57:52.714Z,53.40
2023-02-13T08:00:57.475Z,50.63
2023-02-13T08:03:59.147Z,55.88
2023-02-13T08:07:00.855Z,49.77
2023-02-13T08:10:21.067Z,51.92
2023-02-13T08:13:22.650Z,47.88
2023-02-13T08:16:24.435Z,50.17
2023-02-13T08:19:26.083Z,46.05
2023-02-13T08:22:27.692Z,41.80
2023-02-13T08:25:30.049Z,40.78
2023-02-13T08:28:31.919Z,38.37
2023-02-13T08:31:33.681Z,40.78
2023-02-13T08:34:35.393Z,36.63
2023-02-13T08:37:37.047Z,34.50
2023-02-13T08:40:38.882Z,37.73
2023-02-13T08:43:40.459Z,37.78
2023-02-13T08:46:45.084Z,34.50
2023-02-13T08:49:46.735Z,38.40
2023-02-13T08:52:48.340Z,35.43
2023-02-13T08:55:57.390Z,36.57
2023-02-13T08:58:59.386Z,35.92
2023-02-13T09:02:04.518Z,37.08
2023-02-13T09:05:06.342Z,33.95
2023-02-13T09:08:08.770Z,34.10
2023-02-13T09:11:10.582Z,32.07
2023-02-13T09:14:12.366Z,34.58
2023-02-13T09:17:18.423Z,34.00
2023-02-13T09:20:20.099Z,34.38
2023-02-13T09:23:21.691Z,34.10
2023-02-13T09:26:23.285Z,29.47
2023-02-13T09:29:24.952Z,32.58
2023-02-13T09:32:26.769Z,33.83
2023-02-13T09:35:29.245Z,30.88
2023-02-13T09:38:30.933Z,29.17
2023-02-13T09:41:36.442Z,31.57
2023-02-13T09:44:43.268Z,30.98
2023-02-13T09:47:48.628Z,27.88
2023-02-13T09:50:51.496Z,29.77
2023-02-13T09:54:03.974Z,32.87
2023-02-13T09:57:24.727Z,31.40
2023-02-13T10:00:53.999Z,29.48
2023-02-13T10:04:17.721Z,33.67
2023-02-13T10:07:37.320Z,32.53
2023-02-13T10:10:54.282Z,33.47
2023-02-13T10:14:14.446Z,34.83
2023-02-13T10:17:22.200Z,33.55
2023-02-13T10:20:42.605Z,35.10
2023-02-13T10:23:46.381Z,36.55
2023-02-13T10:26:47.969Z,32.67
2023-02-13T10:30:12.734Z,33.23
2023-02-13T10:33:21.871Z,33.63
2023-02-13T10:36:36.611Z,34.47
2023-02-13T10:39:40.660Z,37.92
2023-02-13T10:42:45.877Z,34.77
2023-02-13T10:45:50.350Z,36.37
2023-02-13T10:49:22.360Z,33.30
2023-02-13T10:52:36.974Z,35.13
2023-02-13T10:56:10.783Z,30.42
2023-02-13T10:59:37.214Z,31.57
2023-02-13T11:02:40.705Z,29.63
2023-02-13T11:05:42.285Z,33.45
2023-02-13T11:08:46.004Z,31.10
2023-02-13T11:11:47.672Z,28.77
2023-02-13T11:14:56.198Z,28.30
2023-02-13T11:18:12.122Z,29.43
2023-02-13T11:21:21.551Z,29.98
2023-02-13T11:24:24.580Z,26.83
2023-02-13T11:27:30.289Z,27.77
2023-02-13T11:30:33.819Z,27.77
2023-02-13T11:33:35.850Z,26.17
2023-02-13T11:36:37.517Z,25.27
2023-02-13T11:39:41.276Z,26.40
2023-02-13T11:42:42.958Z,26.15
2023-02-13T11:45:44.699Z,27.73
2023-02-13T11:49:05.074Z,26.20
2023-02-13T11:52:07.787Z,26.95
2023-02-13T11:55:26.116Z,25.83
2023-02-13T11:58:28.808Z,28.00
2023-02-13T12:01:30.450Z,25.77
2023-02-13T12:04:32.196Z,25.57
2023-02-13T12:07:33.820Z,25.55
2023-02-13T12:10:36.638Z,22.27
2023-02-13T12:13:39.064Z,23.77
2023-02-13T12:16:47.445Z,22.43
2023-02-13T12:19:49.869Z,23.87
2023-02-13T12:23:06.612Z,23.67
2023-02-13T12:26:20.863Z,26.60
2023-02-13T12:29:25.492Z,23.48
2023-02-13T12:32:30.291Z,24.73
2023-02-13T12:35:31.824Z,25.10
2023-02-13T12:38:51.452Z,24.08
2023-02-13T12:42:17.537Z,22.08
2023-02-13T12:45:26.116Z,23.40
2023-02-13T12:48:33.652Z,23.60
2023-02-13T12:52:26.319Z,22.90
2023-02-13T12:55:39.806Z,21.05
2023-02-13T12:58:51.216Z,23.13
2023-02-13T13:02:07.480Z,21.73
2023-02-13T13:05:27.489Z,20.97
2023-02-13T13:08:48.697Z,19.83
2023-02-13T13:12:10.479Z,20.90
2023-02-13T13:15:18.331Z,20.70
2023-02-13T13:18:47.944Z,20.08
2023-02-13T13:21:56.767Z,20.80
2023-02-13T13:25:12.895Z,22.00
2023-02-13T13:28:26.381Z,22.15
2023-02-13T13:31:28.117Z,19.35
2023-02-13T13:34:29.733Z,15.23
2023-02-13T13:37:41.168Z,13.10
2023-02-13T13:40:57.054Z,15.23
2023-02-13T13:44:01.760Z,15.10
2023-02-13T13:47:10.792Z,15.15
2023-02-13T13:50:23.816Z,15.77
2023-02-13T13:53:26.401Z,13.77
2023-02-13T13:56:53.864Z,14.30
2023-02-13T14:00:08.655Z,15.07
2023-02-13T14:03:24.709Z,13.15
2023-02-13T14:06:50.423Z,16.27
2023-02-13T14:09:52.074Z,15.13
2023-02-13T14:12:56.427Z,12.67
2023-02-13T14:15:58.088Z,12.50
2023-02-13T14:18:59.718Z,17.75
2023-02-13T14:22:28.167Z,15.07
2023-02-13T14:25:29.815Z,16.20
2023-02-13T14:28:31.633Z,15.73
2023-02-13T14:31:33.895Z,16.75
2023-02-13T14:34:37.543Z,15.32
2023-02-13T14:37:40.275Z,15.30
2023-02-13T14:40:48.687Z,16.03
2023-02-13T14:43:51.367Z,13.57
2023-02-13T14:46:53.019Z,14.07
2023-02-13T14:49:54.714Z,15.10
2023-02-13T14:52:58.681Z,14.68
2023-02-13T14:56:13.025Z,15.33
2023-02-13T14:59:31.573Z,14.73
2023-02-13T15:02:40.090Z,11.52
2023-02-13T15:05:41.719Z,14.65
2023-02-13T15:08:48.644Z,13.80
2023-02-13T15:11:50.279Z,13.68
2023-02-13T15:14:51.990Z,16.42
2023-02-13T15:18:02.826Z,13.90
2023-02-13T15:21:04.852Z,12.57
2023-02-13T15:24:06.430Z,14.63
2023-02-13T15:27:21.639Z,13.75
2023-02-13T15:30:25.960Z,14.70
2023-02-13T15:33:29.679Z,15.20
2023-02-13T15:36:39.646Z,13.80
2023-02-13T15:39:41.479Z,15.88
2023-02-13T15:42:45.829Z,16.33
2023-02-13T15:45:47.426Z,16.23
2023-02-13T15:48:49.156Z,13.70
2023-02-13T15:51:51.038Z,16.00
2023-02-13T15:54:53.831Z,13.18
2023-02-13T15:57:56.961Z,14.13
2023-02-13T16:01:06.700Z,13.73
2023-02-13T16:04:08.896Z,15.13
2023-02-13T16:07:11.793Z,13.75
2023-02-13T16:10:38.179Z,15.57
2023-02-13T16:13:39.782Z,12.30
2023-02-13T16:16:48.471Z,13.30
2023-02-13T16:20:04.264Z,16.23
2023-02-13T16:23:16.175Z,13.73
2023-02-13T16:26:21.960Z,13.60
2023-02-13T16:29:26.325Z,14.73
2023-02-13T16:32:33.060Z,16.73
2023-02-13T16:35:37.938Z,16.60
2023-02-13T16:38:40.232Z,15.65
2023-02-13T16:41:45.988Z,12.73
2023-02-13T16:44:47.578Z,17.08
2023-02-13T16:47:49.228Z,15.23
2023-02-13T16:50:57.154Z,16.17
2023-02-13T16:54:21.766Z,14.40
2023-02-13T16:57:39.224Z,13.25
2023-02-13T17:00:40.877Z,15.65
2023-02-13T17:03:42.562Z,15.32
2023-02-13T17:06:44.213Z,16.17
2023-02-13T17:09:45.817Z,19.40
2023-02-13T17:12:47.582Z,14.73
2023-02-13T17:15:52.923Z,16.08
2023-02-13T17:18:54.528Z,17.67
2023-02-13T17:21:56.121Z,17.35
2023-02-13T17:24:58.642Z,17.55
2023-02-13T17:28:11.857Z,18.00
2023-02-13T17:31:16.950Z,16.08
2023-02-13T17:34:18.686Z,20.65
2023-02-13T17:37:25.337Z,16.57
2023-02-13T17:40:32.519Z,15.57
2023-02-13T17:43:34.106Z,19.70
2023-02-13T17:46:35.694Z,14.57
2023-02-13T17:49:37.362Z,17.70
2023-02-13T17:52:39.625Z,19.40
2023-02-13T17:55:44.784Z,17.80
2023-02-13T17:58:47.279Z,16.73
2023-02-13T18:01:49.547Z,19.33
2023-02-13T18:04:51.200Z,17.73
2023-02-13T18:07:52.786Z,21.08
2023-02-13T18:10:54.377Z,20.83
2023-02-13T18:14:00.828Z,21.73
2023-02-13T18:17:02.484Z,22.70
2023-02-13T18:20:05.959Z,26.35
2023-02-13T18:23:08.176Z,21.65
2023-02-13T18:26:10.326Z,21.40
2023-02-13T18:29:12.031Z,22.17
2023-02-13T18:32:13.783Z,24.10
2023-02-13T18:35:17.441Z,25.55
2023-02-13T18:38:20.721Z,22.17
2023-02-13T18:41:22.304Z,25.90
2023-02-13T18:44:28.772Z,25.42
2023-02-13T18:47:30.751Z,28.13
2023-02-13T18:50:32.416Z,24.27
2023-02-13T18:53:34.274Z,25.17
2023-02-13T18:56:40.178Z,25.38
2023-02-13T18:59:41.741Z,24.65
2023-02-13T19:02:43.404Z,25.87
2023-02-13T19:05:45.039Z,25.73
2023-02-13T19:08:46.885Z,26.63
2023-02-13T19:11:48.608Z,28.60
2023-02-13T19:14:52.578Z,23.37
2023-02-13T19:17:57.158Z,25.25
2023-02-13T19:21:00.570Z,26.48
2023-02-13T19:24:03.325Z,24.45
2023-02-13T19:27:04.927Z,32.42
2023-02-13T19:30:09.435Z,28.23
2023-02-13T19:33:11.192Z,25.55
2023-02-13T19:36:14.657Z,26.57
2023-02-13T19:39:16.452Z,23.45
2023-02-13T19:42:18.067Z,28.48
2023-02-13T19:45:19.741Z,28.30
2023-02-13T19:48:21.335Z,28.43
2023-02-13T19:51:25.441Z,31.38
2023-02-13T19:54:27.017Z,26.77
2023-02-13T19:57:28.669Z,31.25
2023-02-13T20:00:30.347Z,24.47
2023-02-13T20:03:31.928Z,25.83
2023-02-13T20:06:37.828Z,25.58
2023-02-13T20:09:40.086Z,26.43
2023-02-13T20:12:41.738Z,27.75
2023-02-13T20:15:46.218Z,26.92
2023-02-13T20:18:47.852Z,25.40
2023-02-13T20:21:49.536Z,29.65
2023-02-13T20:24:51.135Z,24.88
2023-02-13T20:27:52.748Z,25.15
2023-02-13T20:30:58.702Z,26.60
2023-02-13T20:34:00.721Z,26.27
2023-02-13T20:37:02.370Z,26.10
2023-02-13T20:40:06.912Z,27.05
2023-02-13T20:43:08.584Z,25.77
2023-02-13T20:46:16.210Z,23.88
2023-02-13T20:49:21.893Z,22.88
2023-02-13T20:52:23.585Z,26.67
2023-02-13T20:55:25.264Z,23.35
2023-02-13T20:58:26.889Z,21.65
2023-02-13T21:01:32.983Z,24.10
2023-02-13T21:04:34.678Z,27.90
2023-02-13T21:07:36.392Z,26.80
2023-02-13T21:10:38.377Z,25.25
2023-02-13T21:13:40.254Z,26.70
2023-02-13T21:16:41.994Z,28.30
2023-02-13T21:19:43.700Z,25.20
2023-02-13T21:22:45.303Z,25.77
2023-02-13T21:25:46.861Z,23.73
2023-02-13T21:28:48.909Z,25.37
2023-02-13T21:31:54.729Z,25.73
2023-02-13T21:34:56.584Z,26.17
2023-02-13T21:37:58.304Z,28.10
2023-02-13T21:41:16.753Z,26.20
2023-02-13T21:44:22.126Z,25.67
2023-02-13T21:47:23.726Z,22.58
2023-02-13T21:50:25.373Z,26.97
2023-02-13T21:53:26.961Z,23.83
2023-02-13T21:56:32.857Z,25.50
2023-02-13T21:59:37.998Z,24.08
2023-02-13T22:02:39.777Z,26.67
2023-02-13T22:05:47.997Z,27.00
2023-02-13T22:08:49.785Z,24.08
2023-02-13T22:11:53.690Z,26.92
2023-02-13T22:15:00.171Z,25.17
2023-02-13T22:18:01.785Z,23.70
2023-02-13T22:21:14.260Z,27.27
2023-02-13T22:24:15.959Z,26.97
2023-02-13T22:27:17.573Z,24.27
2023-02-13T22:30:23.270Z,25.15
2023-02-13T22:33:24.979Z,25.83
2023-02-13T22:36:29.776Z,25.80
2023-02-13T22:39:31.360Z,24.20
2023-02-13T22:42:32.977Z,26.77
2023-02-13T22:45:40.251Z,23.13
2023-02-13T22:48:42.344Z,24.05
2023-02-13T22:51:44.031Z,23.73
2023-02-13T22:54:46.087Z,22.35
2023-02-13T22:57:49.934Z,24.13
2023-02-13T23:00:55.196Z,21.15
2023-02-13T23:03:57.161Z,21.50
2023-02-13T23:06:58.935Z,20.57
2023-02-13T23:10:00.533Z,21.73
2023-02-13T23:13:02.225Z,22.98
2023-02-13T23:16:08.397Z,27.20
2023-02-13T23:19:09.961Z,24.48
2023-02-13T23:22:13.564Z,25.42
2023-02-13T23:25:15.156Z,23.27
2023-02-13T23:28:16.771Z,21.17
2023-02-13T23:31:18.429Z,22.10
2023-02-13T23:34:24.320Z,23.73
2023-02-13T23:37:25.925Z,27.37
2023-02-13T23:40:27.540Z,25.60
2023-02-13T23:43:29.143Z,24.08
2023-02-13T23:46:33.829Z,21.52
2023-02-13T23:49:35.448Z,21.30
2023-02-13T23:52:40.279Z,22.33
2023-02-13T23:55:41.851Z,20.48
2023-02-13T23:58:43.493Z,21.03
